PWSweather.com
Personal Weather Stations
Station Observations
PWSLORIS
The Farm At Fox Bay, Loris, SC 29569

The Farm At Fox BayLoris, SC 29569

Lat: 34.067097, Lon: -78.86907

Elevation: 108

Station Type: Davis Vantage Pro2 with 24 hr. FARS and solar

http://www.lorisweather.com

Latest ConditionsUpdated 1:15:01 PM EDT Sunday, Jun 26, 2016
Currently Today's Max Today's Min Today's Average
Temperature 82.2°F27.9°C 82.2°F27.9°C 70.6°F21.4°C 74.4°F23.6°C
Dew Point 71.9°F22.2°C 73.9°F23.3°C 68.5°F20.3°C 70.9°F21.6°C
Winds 6.1 mph N9.8 kmh N 6.1 mph N9.8 kmh N - 1.9 mph 3.1 kmh
Wind Gusts 8.0 mph12.9 kmh 9.0 mph14.5 kmh - -
Humidity 71% 96% 71% 89%
Pressure 30.15 in1021.0 mb 30.17 in1021.7 mb 30.10 in1019.3 mb -
Hour Temp Dew Point Humidity Winds Wind Gusts Pressure Precip Precip Rate Daily Precip Total
01:15 PM 82.2°F27.9°C 71.9°F22.2°C 71% 6.1 mph N9.8 kmh N 8.0 mph12.9 kmh 30.15 in1021.0 mb - 0.00 in0.0 mm 0.00 in0.0 mm
01:00 PM 81.2°F27.3°C 71.7°F22.1°C 73% 3.3 mph N5.3 kmh N 6.0 mph9.7 kmh 30.15 in1021.0 mb - 0.00 in0.0 mm 0.00 in0.0 mm
12:45 PM 80.6°F27.0°C 70.4°F21.3°C 71% 3.1 mph NE5.0 kmh NE 4.0 mph6.4 kmh 30.16 in1021.3 mb - 0.00 in0.0 mm 0.00 in0.0 mm
12:30 PM 80.9°F27.2°C 71.4°F21.9°C 73% 0.4 mph E0.6 kmh E 2.0 mph3.2 kmh 30.16 in1021.3 mb - 0.00 in0.0 mm 0.00 in0.0 mm
12:15 PM 80.6°F27.0°C 71.6°F22.0°C 74% 4.1 mph E6.6 kmh E 6.0 mph9.7 kmh 30.16 in1021.3 mb - 0.00 in0.0 mm 0.00 in0.0 mm
12:00 PM 79.8°F26.6°C 70.4°F21.3°C 73% 1.7 mph E2.7 kmh E 9.0 mph14.5 kmh 30.16 in1021.3 mb - 0.00 in0.0 mm 0.00 in0.0 mm
11:45 AM 79.4°F26.3°C 70.8°F21.6°C 75% 0.2 mph NW0.3 kmh NW -- 30.17 in1021.7 mb - 0.00 in0.0 mm 0.00 in0.0 mm
11:30 AM 78.5°F25.8°C 70.7°F21.5°C 77% 2.5 mph NE4.0 kmh NE 8.0 mph12.9 kmh 30.17 in1021.7 mb - 0.00 in0.0 mm 0.00 in0.0 mm
11:15 AM 78.5°F25.8°C 70.7°F21.5°C 77% 2.1 mph E3.4 kmh E 6.0 mph9.7 kmh 30.17 in1021.7 mb - 0.00 in0.0 mm 0.00 in0.0 mm
11:00 AM 77.6°F25.3°C 70.6°F21.4°C 79% 0.7 mph NE1.1 kmh NE 3.0 mph4.8 kmh 30.17 in1021.7 mb - 0.00 in0.0 mm 0.00 in0.0 mm
10:45 AM 76.8°F24.9°C 70.2°F21.2°C 80% 5.1 mph NNE8.2 kmh NNE 8.0 mph12.9 kmh 30.17 in1021.7 mb - 0.00 in0.0 mm 0.00 in0.0 mm
10:30 AM 77.0°F25.0°C 70.7°F21.5°C 81% 4.4 mph NE7.1 kmh NE 8.0 mph12.9 kmh 30.17 in1021.7 mb - 0.00 in0.0 mm 0.00 in0.0 mm
10:15 AM 75.7°F24.3°C 70.2°F21.2°C 83% 5.7 mph N9.2 kmh N 9.0 mph14.5 kmh 30.17 in1021.7 mb - 0.00 in0.0 mm 0.00 in0.0 mm
10:00 AM 75.6°F24.2°C 70.4°F21.3°C 84% 5.3 mph NNE8.5 kmh NNE 8.0 mph12.9 kmh 30.17 in1021.7 mb - 0.00 in0.0 mm 0.00 in0.0 mm
09:45 AM 75.8°F24.3°C 70.9°F21.6°C 85% 2.2 mph NE3.5 kmh NE 7.0 mph11.3 kmh 30.17 in1021.7 mb - 0.00 in0.0 mm 0.00 in0.0 mm
09:30 AM 75.2°F24.0°C 70.4°F21.3°C 85% 3.0 mph N4.8 kmh N 5.0 mph8.0 kmh 30.17 in1021.7 mb - 0.00 in0.0 mm 0.00 in0.0 mm
09:15 AM 74.2°F23.4°C 70.1°F21.2°C 87% 3.8 mph NE6.1 kmh NE 7.0 mph11.3 kmh 30.16 in1021.3 mb - 0.00 in0.0 mm 0.00 in0.0 mm
09:00 AM 74.0°F23.3°C 69.9°F21.1°C 87% 3.5 mph N5.6 kmh N 4.0 mph6.4 kmh 30.17 in1021.7 mb - 0.00 in0.0 mm 0.00 in0.0 mm
08:45 AM 72.8°F22.7°C 69.3°F20.7°C 89% 4.0 mph NE6.4 kmh NE 6.0 mph9.7 kmh 30.17 in1021.7 mb - 0.00 in0.0 mm 0.00 in0.0 mm
08:30 AM 72.2°F22.3°C 68.8°F20.4°C 89% 5.9 mph NNE9.5 kmh NNE 8.0 mph12.9 kmh 30.17 in1021.7 mb - 0.00 in0.0 mm 0.00 in0.0 mm
08:15 AM 71.6°F22.0°C 68.9°F20.5°C 91% 3.8 mph E6.1 kmh E 7.0 mph11.3 kmh 30.16 in1021.3 mb - 0.00 in0.0 mm 0.00 in0.0 mm
08:00 AM 71.3°F21.8°C 68.9°F20.5°C 92% 3.8 mph NE6.1 kmh NE 7.0 mph11.3 kmh 30.16 in1021.3 mb - 0.00 in0.0 mm 0.00 in0.0 mm
07:45 AM 70.8°F21.6°C 68.6°F20.3°C 93% 1.0 mph NE1.6 kmh NE 5.0 mph8.0 kmh 30.16 in1021.3 mb - 0.00 in0.0 mm 0.00 in0.0 mm
07:30 AM 70.6°F21.4°C 68.5°F20.3°C 93% 3.4 mph NE5.5 kmh NE 8.0 mph12.9 kmh 30.16 in1021.3 mb - 0.00 in0.0 mm 0.00 in0.0 mm
07:15 AM 70.7°F21.5°C 68.6°F20.3°C 93% 1.4 mph NE2.3 kmh NE 3.0 mph4.8 kmh 30.16 in1021.3 mb - 0.00 in0.0 mm 0.00 in0.0 mm
07:00 AM 70.8°F21.6°C 69.0°F20.6°C 94% 2.5 mph NE4.0 kmh NE 5.0 mph8.0 kmh 30.16 in1021.3 mb - 0.00 in0.0 mm 0.00 in0.0 mm
06:45 AM 70.9°F21.6°C 69.1°F20.6°C 94% 3.9 mph ENE6.3 kmh ENE 5.0 mph8.0 kmh 30.16 in1021.3 mb - 0.00 in0.0 mm 0.00 in0.0 mm
06:30 AM 71.0°F21.7°C 69.2°F20.7°C 94% 0.5 mph N0.8 kmh N -- 30.16 in1021.3 mb - 0.00 in0.0 mm 0.00 in0.0 mm
06:15 AM 71.1°F21.7°C 69.3°F20.7°C 94% Calm Calm -- 30.16 in1021.3 mb - 0.00 in0.0 mm 0.00 in0.0 mm
06:00 AM 71.2°F21.8°C 69.7°F20.9°C 95% 1.7 mph NE2.7 kmh NE 3.0 mph4.8 kmh 30.15 in1021.0 mb - 0.00 in0.0 mm 0.00 in0.0 mm
05:45 AM 71.3°F21.8°C 69.8°F21.0°C 95% Calm Calm -- 30.14 in1020.7 mb - 0.00 in0.0 mm 0.00 in0.0 mm
05:30 AM 71.3°F21.8°C 69.8°F21.0°C 95% 2.4 mph N3.9 kmh N 3.0 mph4.8 kmh 30.14 in1020.7 mb - 0.00 in0.0 mm 0.00 in0.0 mm
05:15 AM 71.5°F21.9°C 70.0°F21.1°C 95% 2.4 mph NNE3.9 kmh NNE 4.0 mph6.4 kmh 30.13 in1020.3 mb - 0.00 in0.0 mm 0.00 in0.0 mm
05:00 AM 71.8°F22.1°C 70.6°F21.4°C 96% 1.4 mph NE2.3 kmh NE 4.0 mph6.4 kmh 30.12 in1020.0 mb - 0.00 in0.0 mm 0.00 in0.0 mm
04:45 AM 72.1°F22.3°C 70.6°F21.4°C 95% Calm Calm -- 30.12 in1020.0 mb - 0.00 in0.0 mm 0.00 in0.0 mm
04:30 AM 72.3°F22.4°C 71.1°F21.7°C 96% Calm Calm -- 30.12 in1020.0 mb - 0.00 in0.0 mm 0.00 in0.0 mm
04:15 AM 72.6°F22.6°C 71.1°F21.7°C 95% Calm Calm -- 30.11 in1019.6 mb - 0.00 in0.0 mm 0.00 in0.0 mm
04:00 AM 72.9°F22.7°C 71.4°F21.9°C 95% Calm Calm -- 30.11 in1019.6 mb - 0.00 in0.0 mm 0.00 in0.0 mm
03:45 AM 73.0°F22.8°C 71.5°F21.9°C 95% 0.2 mph NE0.3 kmh NE 3.0 mph4.8 kmh 30.10 in1019.3 mb - 0.00 in0.0 mm 0.00 in0.0 mm
03:30 AM 73.1°F22.8°C 71.6°F22.0°C 95% 1.8 mph NE2.9 kmh NE 8.0 mph12.9 kmh 30.10 in1019.3 mb - 0.00 in0.0 mm 0.00 in0.0 mm
03:15 AM 73.4°F23.0°C 71.9°F22.2°C 95% 1.5 mph NE2.4 kmh NE 3.0 mph4.8 kmh 30.10 in1019.3 mb - 0.00 in0.0 mm 0.00 in0.0 mm
03:00 AM 73.6°F23.1°C 72.1°F22.3°C 95% 3.5 mph NE5.6 kmh NE 7.0 mph11.3 kmh 30.11 in1019.6 mb - 0.00 in0.0 mm 0.00 in0.0 mm
02:45 AM 73.8°F23.2°C 72.6°F22.6°C 96% 2.0 mph ENE3.2 kmh ENE 4.0 mph6.4 kmh 30.11 in1019.6 mb - 0.00 in0.0 mm 0.00 in0.0 mm
02:30 AM 74.0°F23.3°C 72.8°F22.7°C 96% Calm Calm -- 30.12 in1020.0 mb - 0.00 in0.0 mm 0.00 in0.0 mm
02:15 AM 74.1°F23.4°C 72.6°F22.6°C 95% Calm Calm -- 30.12 in1020.0 mb - 0.00 in0.0 mm 0.00 in0.0 mm
02:00 AM 74.2°F23.4°C 72.6°F22.6°C 95% Calm Calm -- 30.12 in1020.0 mb - 0.00 in0.0 mm 0.00 in0.0 mm
01:45 AM 74.1°F23.4°C 72.6°F22.6°C 95% Calm Calm -- 30.12 in1020.0 mb - 0.00 in0.0 mm 0.00 in0.0 mm
01:30 AM 74.1°F23.4°C 72.6°F22.6°C 95% Calm Calm -- 30.12 in1020.0 mb - 0.00 in0.0 mm 0.00 in0.0 mm
01:15 AM 74.1°F23.4°C 72.6°F22.6°C 95% Calm Calm -- 30.12 in1020.0 mb - 0.00 in0.0 mm 0.00 in0.0 mm
01:00 AM 74.3°F23.5°C 73.1°F22.8°C 96% Calm Calm -- 30.12 in1020.0 mb - 0.00 in0.0 mm 0.00 in0.0 mm
12:45 AM 74.5°F23.6°C 73.3°F22.9°C 96% Calm Calm -- 30.11 in1019.6 mb - 0.00 in0.0 mm 0.00 in0.0 mm
12:30 AM 74.9°F23.8°C 73.7°F23.2°C 96% Calm Calm -- 30.12 in1020.0 mb - 0.00 in0.0 mm 0.00 in0.0 mm
12:15 AM 75.1°F23.9°C 73.9°F23.3°C 96% Calm Calm -- 30.11 in1019.6 mb - 0.00 in0.0 mm 0.00 in0.0 mm
12:00 AM 75.4°F24.1°C 73.8°F23.2°C 95% Calm Calm -- 30.12 in1020.0 mb - 0.00 in0.0 mm 0.00 in0.0 mm